Time;durP1;ratioP1;P1;durP2;ratioP2;P2;SDS_P1;SDS_P2;PMS_P1;PMS_P2;Temp;Humidity;BMP_temperature;BMP_pressure;BME280_temperature;BME280_humidity;BME280_pressure;Samples;Min_cycle;Max_cycle;Signal;HPM_P1;HPM_P2
2023/07/15 00:00:14;;;;;;;3.87;2.30;;;;;;;;;;5014636;28;20500;-84
2023/07/15 00:02:44;;;;;;;4.73;2.50;;;;;;;;;;5015064;28;20749;-85
2023/07/15 00:05:20;;;;;;;4.17;1.60;;;;;;;;;;5014505;28;20426;-85
2023/07/15 00:07:46;;;;;;;3.00;2.07;;;;;;;;;;5014801;28;20413;-84
2023/07/15 00:10:12;;;;;;;5.33;1.80;;;;;;;;;;4998294;28;20418;-85
2023/07/15 00:12:38;;;;;;;5.80;2.23;;;;;;;;;;5014720;28;20539;-86
2023/07/15 00:15:05;;;;;;;2.33;1.70;;;;;;;;;;5014196;28;20760;-85
2023/07/15 00:17:31;;;;;;;3.43;1.90;;;;;;;;;;4998456;28;20468;-84
2023/07/15 00:19:57;;;;;;;3.20;2.40;;;;;;;;;;4998198;28;20433;-85
2023/07/15 00:22:23;;;;;;;3.40;2.03;;;;;;;;;;5014768;28;20496;-84
2023/07/15 00:24:49;;;;;;;2.67;1.90;;;;;;;;;;5014622;28;20441;-84
2023/07/15 00:27:15;;;;;;;4.07;2.07;;;;;;;;;;5015691;28;20793;-84
2023/07/15 00:29:41;;;;;;;4.67;2.10;;;;;;;;;;5015716;28;20406;-84
2023/07/15 00:32:12;;;;;;;2.20;2.00;;;;;;;;;;5014028;28;20511;-85
2023/07/15 00:34:38;;;;;;;2.20;1.90;;;;;;;;;;4998113;28;20432;-84
2023/07/15 00:37:04;;;;;;;3.60;1.97;;;;;;;;;;4997490;28;20457;-85
2023/07/15 00:39:30;;;;;;;3.83;2.30;;;;;;;;;;5014172;28;20422;-84
2023/07/15 00:41:58;;;;;;;4.20;2.53;;;;;;;;;;5014155;28;20468;-86
2023/07/15 00:44:24;;;;;;;3.50;2.27;;;;;;;;;;4998035;28;20825;-84
2023/07/15 00:47:03;;;;;;;5.93;1.83;;;;;;;;;;5014125;28;20979;-84
2023/07/15 00:49:33;;;;;;;2.50;1.70;;;;;;;;;;5013945;28;21002;-84
2023/07/15 00:52:01;;;;;;;5.20;2.30;;;;;;;;;;5013588;28;20467;-85
2023/07/15 00:54:28;;;;;;;3.00;2.00;;;;;;;;;;5013865;28;20453;-85
2023/07/15 00:56:55;;;;;;;2.90;2.10;;;;;;;;;;5015067;28;20480;-84
2023/07/15 00:59:22;;;;;;;3.27;2.03;;;;;;;;;;5013936;28;20443;-85
2023/07/15 01:01:49;;;;;;;5.37;1.87;;;;;;;;;;5013684;28;20417;-84
2023/07/15 01:04:15;;;;;;;2.87;1.90;;;;;;;;;;5013528;28;20458;-85
2023/07/15 01:06:45;;;;;;;3.00;2.17;;;;;;;;;;5013867;28;20423;-84
2023/07/15 01:09:11;;;;;;;2.33;2.07;;;;;;;;;;5014728;28;20402;-84
2023/07/15 01:11:39;;;;;;;3.93;1.97;;;;;;;;;;5014527;28;20472;-84
2023/07/15 01:14:05;;;;;;;2.20;2.00;;;;;;;;;;5013155;28;20876;-85
2023/07/15 01:16:32;;;;;;;3.90;2.10;;;;;;;;;;5013438;28;20467;-84
2023/07/15 01:18:58;;;;;;;5.23;2.07;;;;;;;;;;4996961;28;20448;-86
2023/07/15 01:21:29;;;;;;;2.67;1.97;;;;;;;;;;5013072;28;20480;-84
2023/07/15 01:23:55;;;;;;;2.10;1.90;;;;;;;;;;5014644;28;20482;-84
2023/07/15 01:26:21;;;;;;;6.40;2.03;;;;;;;;;;4996105;28;20422;-84
2023/07/15 01:28:47;;;;;;;1.97;1.87;;;;;;;;;;5012951;28;20392;-84
2023/07/15 01:31:14;;;;;;;2.00;1.80;;;;;;;;;;4996805;28;21007;-85
2023/07/15 01:33:40;;;;;;;2.97;2.10;;;;;;;;;;5013274;28;20422;-84
2023/07/15 01:36:06;;;;;;;3.10;2.03;;;;;;;;;;5012876;28;20420;-84
2023/07/15 01:38:33;;;;;;;2.00;1.90;;;;;;;;;;4996982;28;20410;-84
2023/07/15 01:40:59;;;;;;;4.17;2.00;;;;;;;;;;4996624;28;20425;-87
2023/07/15 01:43:25;;;;;;;9.90;2.50;;;;;;;;;;5014441;28;20418;-84
2023/07/15 01:45:52;;;;;;;5.17;2.13;;;;;;;;;;5013013;28;20429;-84
2023/07/15 01:48:19;;;;;;;2.30;2.10;;;;;;;;;;5013064;28;20452;-83
2023/07/15 01:50:45;;;;;;;1.97;1.60;;;;;;;;;;5013119;28;20406;-84
2023/07/15 01:53:11;;;;;;;2.90;1.70;;;;;;;;;;5012599;28;20440;-84
2023/07/15 01:55:37;;;;;;;3.50;2.20;;;;;;;;;;5012946;28;20426;-84
2023/07/15 01:58:03;;;;;;;3.87;1.80;;;;;;;;;;5012494;28;20446;-85
2023/07/15 02:00:29;;;;;;;9.43;2.53;;;;;;;;;;5012596;28;20422;-85
2023/07/15 02:02:55;;;;;;;2.33;1.80;;;;;;;;;;5013958;28;20488;-84
2023/07/15 02:05:21;;;;;;;3.10;1.90;;;;;;;;;;5012593;28;20385;-85
2023/07/15 02:07:48;;;;;;;3.10;2.00;;;;;;;;;;5012655;28;20414;-84
2023/07/15 02:10:14;;;;;;;2.30;1.90;;;;;;;;;;5012557;28;20446;-85
2023/07/15 02:12:40;;;;;;;2.60;1.80;;;;;;;;;;4996302;28;20508;-85
2023/07/15 02:15:07;;;;;;;2.83;1.90;;;;;;;;;;5013373;28;20841;-85
2023/07/15 02:17:33;;;;;;;3.73;2.20;;;;;;;;;;5012671;28;20437;-85
2023/07/15 02:20:00;;;;;;;7.27;1.87;;;;;;;;;;4996376;28;20429;-85
2023/07/15 02:22:26;;;;;;;2.40;2.00;;;;;;;;;;5012222;28;20414;-85
2023/07/15 02:24:53;;;;;;;4.63;2.00;;;;;;;;;;5012396;28;20414;-85
2023/07/15 02:27:19;;;;;;;5.23;2.23;;;;;;;;;;5013599;28;20425;-85
2023/07/15 02:29:45;;;;;;;2.77;1.80;;;;;;;;;;5012405;28;20409;-85
2023/07/15 02:32:14;;;;;;;3.93;1.70;;;;;;;;;;4995901;28;20961;-85
2023/07/15 02:34:40;;;;;;;4.43;1.77;;;;;;;;;;5013524;28;20405;-86
2023/07/15 02:37:06;;;;;;;1.90;1.63;;;;;;;;;;5012101;28;20426;-85
2023/07/15 02:39:34;;;;;;;2.63;2.10;;;;;;;;;;5016075;28;20408;-84
2023/07/15 02:42:00;;;;;;;2.63;1.87;;;;;;;;;;5000260;28;20909;-85
2023/07/15 02:44:27;;;;;;;2.57;1.80;;;;;;;;;;5016063;28;20433;-85
2023/07/15 02:46:53;;;;;;;2.90;2.07;;;;;;;;;;5000151;28;20482;-85
2023/07/15 02:49:19;;;;;;;2.90;2.23;;;;;;;;;;5015881;28;20410;-85
2023/07/15 02:51:45;;;;;;;4.03;1.63;;;;;;;;;;5016305;28;20453;-85
2023/07/15 02:54:11;;;;;;;1.80;1.70;;;;;;;;;;5017310;28;20383;-85
2023/07/15 02:56:37;;;;;;;2.50;2.30;;;;;;;;;;5016014;28;20507;-85
2023/07/15 02:59:03;;;;;;;1.93;1.73;;;;;;;;;;5016091;28;20453;-85
2023/07/15 03:01:29;;;;;;;2.53;2.03;;;;;;;;;;5016225;28;20397;-84
2023/07/15 03:03:56;;;;;;;3.80;1.80;;;;;;;;;;5015964;28;20414;-85
2023/07/15 03:06:22;;;;;;;4.23;2.07;;;;;;;;;;5015764;28;20418;-84
2023/07/15 03:08:48;;;;;;;2.50;1.97;;;;;;;;;;5016035;28;20420;-85
2023/07/15 03:11:14;;;;;;;4.40;2.47;;;;;;;;;;5016966;28;20761;-85
2023/07/15 03:13:41;;;;;;;3.13;2.30;;;;;;;;;;4999581;28;20392;-85
2023/07/15 03:16:07;;;;;;;1.80;1.70;;;;;;;;;;5016870;28;20913;-85
2023/07/15 03:18:35;;;;;;;3.43;1.87;;;;;;;;;;5015952;28;20420;-85
2023/07/15 03:21:01;;;;;;;3.07;1.97;;;;;;;;;;5017235;28;20406;-85
2023/07/15 03:23:27;;;;;;;4.60;2.27;;;;;;;;;;5015596;28;20488;-85
2023/07/15 03:25:54;;;;;;;2.80;2.10;;;;;;;;;;5015671;28;20395;-85
2023/07/15 03:28:20;;;;;;;3.70;1.93;;;;;;;;;;5016812;28;20414;-85
2023/07/15 03:30:48;;;;;;;1.80;1.70;;;;;;;;;;5016910;28;20477;-85
2023/07/15 03:33:14;;;;;;;2.30;2.00;;;;;;;;;;5015163;28;20475;-85
2023/07/15 03:35:44;;;;;;;2.03;1.80;;;;;;;;;;5015617;28;20457;-84
2023/07/15 03:38:10;;;;;;;1.87;1.50;;;;;;;;;;5015195;28;20389;-85
2023/07/15 03:40:36;;;;;;;3.87;1.80;;;;;;;;;;5015368;28;20410;-84
2023/07/15 03:43:02;;;;;;;2.53;1.93;;;;;;;;;;5015451;28;20782;-85
2023/07/15 03:45:28;;;;;;;5.30;1.83;;;;;;;;;;5016314;28;20402;-85
2023/07/15 03:47:54;;;;;;;2.90;1.60;;;;;;;;;;5015392;28;20421;-85
2023/07/15 03:50:20;;;;;;;5.47;2.13;;;;;;;;;;5014244;28;20418;-85
2023/07/15 03:52:46;;;;;;;2.87;2.00;;;;;;;;;;5014959;28;20980;-85
2023/07/15 03:55:12;;;;;;;2.80;1.90;;;;;;;;;;4998598;28;20396;-85
2023/07/15 03:57:38;;;;;;;3.20;2.23;;;;;;;;;;4998604;28;20524;-85
2023/07/15 04:00:16;;;;;;;4.07;1.90;;;;;;;;;;5015368;28;20471;-85
2023/07/15 04:02:44;;;;;;;4.30;1.57;;;;;;;;;;5015003;28;20645;-85
2023/07/15 04:05:11;;;;;;;2.27;1.77;;;;;;;;;;5014675;28;20917;-86
2023/07/15 04:07:37;;;;;;;2.10;1.63;;;;;;;;;;5015033;28;20418;-85
2023/07/15 04:10:04;;;;;;;2.37;1.73;;;;;;;;;;5015993;28;20762;-85
2023/07/15 04:12:30;;;;;;;2.30;2.10;;;;;;;;;;5014601;28;20564;-87
2023/07/15 04:14:56;;;;;;;2.77;1.77;;;;;;;;;;5016157;28;20434;-85
2023/07/15 04:17:22;;;;;;;2.80;1.80;;;;;;;;;;5014535;28;20423;-86
2023/07/15 04:19:48;;;;;;;3.63;1.93;;;;;;;;;;5014911;28;20402;-84
2023/07/15 04:22:14;;;;;;;2.80;1.77;;;;;;;;;;5014570;28;20414;-85
2023/07/15 04:24:40;;;;;;;3.47;2.20;;;;;;;;;;5014653;28;20465;-85
2023/07/15 04:27:06;;;;;;;2.87;1.73;;;;;;;;;;4998240;28;20917;-85
2023/07/15 04:29:32;;;;;;;2.40;1.83;;;;;;;;;;4997787;28;20434;-84
2023/07/15 04:31:58;;;;;;;2.07;1.80;;;;;;;;;;5014312;28;20465;-85
2023/07/15 04:34:24;;;;;;;3.97;1.93;;;;;;;;;;5015432;28;20500;-85
2023/07/15 04:36:50;;;;;;;2.57;2.03;;;;;;;;;;5014332;28;20448;-85
2023/07/15 04:39:16;;;;;;;2.87;1.80;;;;;;;;;;5013918;28;20410;-85
2023/07/15 04:41:42;;;;;;;4.50;1.87;;;;;;;;;;5015591;28;20416;-85
2023/07/15 04:44:08;;;;;;;4.17;1.90;;;;;;;;;;5014633;28;20392;-85
2023/07/15 04:46:34;;;;;;;1.97;1.73;;;;;;;;;;5013655;28;20452;-84
2023/07/15 04:49:00;;;;;;;2.73;1.83;;;;;;;;;;5014225;28;20461;-85
2023/07/15 04:51:26;;;;;;;2.27;1.90;;;;;;;;;;5013813;28;20831;-85
2023/07/15 04:53:52;;;;;;;3.60;2.00;;;;;;;;;;5014255;28;20429;-85
2023/07/15 04:56:18;;;;;;;6.57;1.97;;;;;;;;;;5013830;28;20402;-85
2023/07/15 04:58:44;;;;;;;2.40;1.87;;;;;;;;;;5013665;28;20465;-85
2023/07/15 05:01:10;;;;;;;4.03;2.00;;;;;;;;;;5012953;28;20418;-85
2023/07/15 05:03:36;;;;;;;2.73;2.07;;;;;;;;;;5013525;28;20410;-84
2023/07/15 05:06:03;;;;;;;1.73;1.63;;;;;;;;;;4997716;28;20752;-85
2023/07/15 05:08:29;;;;;;;8.93;1.80;;;;;;;;;;5013731;28;20413;-85
2023/07/15 05:10:55;;;;;;;3.63;2.00;;;;;;;;;;5013715;28;20493;-84
2023/07/15 05:13:21;;;;;;;2.23;2.03;;;;;;;;;;5014613;28;20432;-85
2023/07/15 05:15:47;;;;;;;2.63;2.07;;;;;;;;;;5013706;28;20997;-85
2023/07/15 05:18:15;;;;;;;2.03;1.90;;;;;;;;;;4996834;28;20445;-86
2023/07/15 05:20:41;;;;;;;2.90;1.97;;;;;;;;;;5013770;28;20433;-85
2023/07/15 05:23:08;;;;;;;4.30;1.77;;;;;;;;;;5013698;28;20388;-85
2023/07/15 05:25:34;;;;;;;4.50;1.90;;;;;;;;;;5014610;28;20496;-86
2023/07/15 05:28:00;;;;;;;4.10;2.40;;;;;;;;;;5013398;28;20484;-85
2023/07/15 05:30:26;;;;;;;1.47;1.30;;;;;;;;;;4997215;28;20421;-85
2023/07/15 05:32:52;;;;;;;5.03;1.70;;;;;;;;;;5013220;28;20494;-84
2023/07/15 05:35:19;;;;;;;4.53;1.90;;;;;;;;;;5014141;28;20406;-85
2023/07/15 05:37:46;;;;;;;5.97;2.17;;;;;;;;;;5013304;28;20414;-84
2023/07/15 05:40:12;;;;;;;2.60;1.63;;;;;;;;;;5013347;28;20441;-85
2023/07/15 05:42:42;;;;;;;2.87;1.90;;;;;;;;;;5014461;28;20425;-85
2023/07/15 05:45:08;;;;;;;3.13;2.10;;;;;;;;;;5012967;28;20420;-84
2023/07/15 05:47:34;;;;;;;2.67;1.90;;;;;;;;;;5012843;28;20410;-85
2023/07/15 05:50:01;;;;;;;3.33;1.87;;;;;;;;;;5013085;28;20413;-84
2023/07/15 05:52:27;;;;;;;3.47;2.33;;;;;;;;;;4996638;28;20495;-84
2023/07/15 05:54:54;;;;;;;3.30;1.67;;;;;;;;;;4996412;28;20437;-84
2023/07/15 05:57:20;;;;;;;4.57;2.00;;;;;;;;;;5013899;28;20413;-84
2023/07/15 05:59:46;;;;;;;3.13;1.77;;;;;;;;;;5014422;28;20394;-85
2023/07/15 06:02:12;;;;;;;2.73;1.80;;;;;;;;;;5012947;28;20842;-84
2023/07/15 06:04:38;;;;;;;2.93;1.77;;;;;;;;;;5012493;28;20424;-84
2023/07/15 06:07:04;;;;;;;3.63;2.00;;;;;;;;;;5012451;28;20426;-87
2023/07/15 06:09:30;;;;;;;2.40;1.97;;;;;;;;;;5012736;28;20428;-84
2023/07/15 06:11:56;;;;;;;3.93;2.17;;;;;;;;;;4996780;28;20807;-86
2023/07/15 06:14:22;;;;;;;2.10;1.90;;;;;;;;;;5013551;28;20398;-85
2023/07/15 06:16:48;;;;;;;2.80;2.13;;;;;;;;;;4996420;28;20422;-85
2023/07/15 06:19:14;;;;;;;4.03;2.00;;;;;;;;;;5014016;28;20402;-87
2023/07/15 06:21:43;;;;;;;2.93;1.90;;;;;;;;;;4996235;28;20802;-85
2023/07/15 06:24:11;;;;;;;2.13;1.67;;;;;;;;;;4996655;28;20871;-84
2023/07/15 06:26:37;;;;;;;3.23;1.60;;;;;;;;;;5012477;28;20497;-87
2023/07/15 06:29:03;;;;;;;3.70;2.17;;;;;;;;;;5013686;28;20410;-87
2023/07/15 06:31:29;;;;;;;4.40;1.90;;;;;;;;;;5012394;28;20881;-87
2023/07/15 06:33:55;;;;;;;2.20;1.90;;;;;;;;;;5012544;28;20406;-88
2023/07/15 06:36:21;;;;;;;5.60;2.23;;;;;;;;;;4995823;28;20422;-87
2023/07/15 06:38:47;;;;;;;4.67;2.00;;;;;;;;;;5012919;28;20441;-87
2023/07/15 06:41:13;;;;;;;2.83;1.80;;;;;;;;;;5013719;28;20798;-87
2023/07/15 06:43:39;;;;;;;6.43;2.03;;;;;;;;;;4996063;28;20435;-87
2023/07/15 06:46:06;;;;;;;3.00;1.97;;;;;;;;;;4995874;28;20422;-87
2023/07/15 06:48:35;;;;;;;3.80;1.93;;;;;;;;;;5017858;28;20402;-92
2023/07/15 06:51:01;;;;;;;5.20;2.43;;;;;;;;;;5015887;28;20469;-92
2023/07/15 06:53:27;;;;;;;4.23;2.10;;;;;;;;;;5015406;28;20512;-91
2023/07/15 06:55:53;;;;;;;4.83;2.60;;;;;;;;;;5028209;28;20905;-95
2023/07/15 06:58:20;;;;;;;7.70;2.33;;;;;;;;;;5020962;28;20474;-93
2023/07/15 07:00:46;;;;;;;5.47;1.90;;;;;;;;;;5029314;28;20437;-93
2023/07/15 07:03:12;;;;;;;6.30;2.17;;;;;;;;;;5034469;28;20443;-91
2023/07/15 07:05:38;;;;;;;5.00;1.90;;;;;;;;;;5013373;28;20524;-92
2023/07/15 07:08:04;;;;;;;2.23;2.00;;;;;;;;;;5014116;28;20413;-92
2023/07/15 07:10:30;;;;;;;3.73;2.07;;;;;;;;;;5016323;28;20409;-92
2023/07/15 07:12:56;;;;;;;2.37;2.17;;;;;;;;;;5025741;28;20522;-93
2023/07/15 07:15:22;;;;;;;5.40;2.30;;;;;;;;;;5009906;28;20441;-90
2023/07/15 07:17:48;;;;;;;3.03;1.60;;;;;;;;;;5025222;28;20501;-92
2023/07/15 07:20:14;;;;;;;2.40;1.93;;;;;;;;;;4997029;28;20454;-93
2023/07/15 07:22:40;;;;;;;1.80;1.70;;;;;;;;;;5013151;28;20409;-93
2023/07/15 07:25:07;;;;;;;1.80;1.70;;;;;;;;;;5021723;28;20475;-92
2023/07/15 07:27:33;;;;;;;2.83;2.47;;;;;;;;;;5028084;28;20429;-92
2023/07/15 07:30:02;;;;;;;2.00;1.60;;;;;;;;;;5033310;28;20504;-91
2023/07/15 07:32:28;;;;;;;7.80;2.53;;;;;;;;;;5035586;28;20812;-92
2023/07/15 07:34:54;;;;;;;3.27;1.87;;;;;;;;;;5037531;28;20919;-93
2023/07/15 07:37:20;;;;;;;5.40;2.00;;;;;;;;;;5038658;28;20462;-90
2023/07/15 07:39:46;;;;;;;4.13;2.70;;;;;;;;;;5034686;28;20444;-90
2023/07/15 07:42:13;;;;;;;2.67;2.10;;;;;;;;;;5021218;28;20502;-93
2023/07/15 07:44:39;;;;;;;3.50;1.93;;;;;;;;;;5007273;28;20440;-93
2023/07/15 07:47:05;;;;;;;3.20;1.70;;;;;;;;;;5017071;28;20909;-89
2023/07/15 07:49:31;;;;;;;3.83;1.97;;;;;;;;;;5016811;28;20965;-92
2023/07/15 07:51:57;;;;;;;3.23;1.53;;;;;;;;;;5017292;28;20531;-91
2023/07/15 07:54:23;;;;;;;2.33;1.70;;;;;;;;;;5017900;28;20436;-92
2023/07/15 07:56:52;;;;;;;4.47;2.30;;;;;;;;;;5017456;28;20437;-93
2023/07/15 07:59:18;;;;;;;2.90;1.53;;;;;;;;;;5002607;28;20516;-93
2023/07/15 08:01:44;;;;;;;2.63;1.80;;;;;;;;;;5019010;28;20425;-92
2023/07/15 08:04:10;;;;;;;4.90;2.17;;;;;;;;;;5026884;28;20459;-91
2023/07/15 08:06:36;;;;;;;5.07;1.80;;;;;;;;;;5036706;28;20409;-92
2023/07/15 08:09:02;;;;;;;2.30;1.67;;;;;;;;;;5020016;28;20513;-92
2023/07/15 08:11:28;;;;;;;5.40;2.03;;;;;;;;;;5034582;28;20409;-89
2023/07/15 08:13:54;;;;;;;3.07;1.77;;;;;;;;;;5035932;28;20837;-90
2023/07/15 08:16:31;;;;;;;1.63;1.30;;;;;;;;;;5017984;28;20431;-89
2023/07/15 08:18:57;;;;;;;2.00;1.73;;;;;;;;;;5034571;28;20466;-86
2023/07/15 08:21:23;;;;;;;3.03;1.63;;;;;;;;;;5017693;28;20421;-85
2023/07/15 08:23:49;;;;;;;4.60;1.67;;;;;;;;;;5035351;28;20413;-84
2023/07/15 08:26:15;;;;;;;2.00;1.63;;;;;;;;;;5034183;28;20455;-86
2023/07/15 08:28:41;;;;;;;3.17;1.70;;;;;;;;;;5028086;28;20436;-84
2023/07/15 08:31:07;;;;;;;3.63;2.37;;;;;;;;;;5016424;28;20421;-84
2023/07/15 08:33:33;;;;;;;2.27;2.07;;;;;;;;;;5047603;28;20463;-81
2023/07/15 08:35:59;;;;;;;2.33;2.10;;;;;;;;;;5053148;28;20473;-84
2023/07/15 08:38:25;;;;;;;2.10;1.90;;;;;;;;;;5053790;28;20909;-84
2023/07/15 08:40:52;;;;;;;3.70;2.00;;;;;;;;;;5037465;28;20479;-89
2023/07/15 08:43:18;;;;;;;2.27;2.07;;;;;;;;;;5053794;28;20469;-89
2023/07/15 08:45:45;;;;;;;2.40;2.20;;;;;;;;;;5037064;28;20424;-87
2023/07/15 08:48:12;;;;;;;3.20;2.30;;;;;;;;;;5055584;28;20408;-90
2023/07/15 08:50:38;;;;;;;8.17;3.40;;;;;;;;;;5054493;28;20416;-93
2023/07/15 08:53:04;;;;;;;4.43;2.33;;;;;;;;;;5054047;28;20478;-90
2023/07/15 08:55:30;;;;;;;7.83;3.43;;;;;;;;;;5054576;28;20425;-88
2023/07/15 08:57:59;;;;;;;4.73;3.10;;;;;;;;;;5055217;28;20480;-89
2023/07/15 09:00:25;;;;;;;3.40;2.90;;;;;;;;;;5055397;28;20799;-90
2023/07/15 09:02:52;;;;;;;3.80;3.20;;;;;;;;;;5038390;28;20436;-78
2023/07/15 09:05:20;;;;;;;6.97;3.20;;;;;;;;;;5032728;28;20384;-78
2023/07/15 09:07:54;;;;;;;4.20;3.80;;;;;;;;;;5017638;28;20428;-78
2023/07/15 09:10:20;;;;;;;5.80;3.40;;;;;;;;;;5033948;28;20773;-78
2023/07/15 09:12:53;;;;;;;12.40;4.37;;;;;;;;;;5017349;28;20481;-78
2023/07/15 09:15:20;;;;;;;7.67;4.00;;;19.50;99.90;;;;;;5035302;28;20403;-78
2023/07/15 09:18:01;;;;;;;6.00;4.33;;;19.70;99.90;;;;;;5034861;28;20780;-78
2023/07/15 09:20:27;;;;;;;5.10;4.17;;;19.60;99.90;;;;;;5029303;28;20424;-80
2023/07/15 09:22:55;;;;;;;6.70;4.20;;;;;;;;;;5014527;28;20385;-78
2023/07/15 09:25:22;;;;;;;11.20;3.87;;;19.50;99.90;;;;;;5014159;28;20186;-78
2023/07/15 09:27:48;;;;;;;9.63;5.20;;;;;;;;;;5013867;28;20492;-78
2023/07/15 09:30:15;;;;;;;9.43;4.67;;;;;;;;;;5013749;28;20734;-78
2023/07/15 09:32:41;;;;;;;7.90;4.83;;;;;;;;;;4996885;28;20469;-78
2023/07/15 09:35:07;;;;;;;5.30;4.20;;;19.40;99.90;;;;;;5013729;28;20767;-78
2023/07/15 09:37:34;;;;;;;9.83;4.60;;;19.30;99.90;;;;;;5013298;28;20380;-78
2023/07/15 09:40:09;;;;;;;5.23;4.30;;;19.50;99.90;;;;;;5014056;28;20773;-78
2023/07/15 09:42:51;;;;;;;7.03;4.90;;;19.50;99.90;;;;;;4982439;28;20408;-77
2023/07/15 09:45:34;;;;;;;8.87;4.23;;;19.60;99.90;;;;;;5013847;28;20813;-77
2023/07/15 09:48:20;;;;;;;6.87;4.40;;;19.70;99.90;;;;;;5012138;28;20430;-77
2023/07/15 09:50:46;;;;;;;6.20;4.77;;;;;;;;;;5012927;28;20966;-77
2023/07/15 09:53:12;;;;;;;6.50;4.87;;;19.60;99.90;;;;;;5013393;28;20826;-78
2023/07/15 09:55:39;;;;;;;7.27;4.87;;;;;;;;;;4997220;28;20910;-77
2023/07/15 09:58:09;;;;;;;6.73;4.27;;;;;;;;;;5013344;28;20469;-77
2023/07/15 10:00:40;;;;;;;5.63;4.93;;;19.70;99.90;;;;;;5013155;28;20461;-78
2023/07/15 10:03:06;;;;;;;10.73;4.90;;;19.80;99.90;;;;;;5013332;28;20984;-77
2023/07/15 10:05:32;;;;;;;4.73;4.27;;;;;;;;;;5017631;28;20418;-78
2023/07/15 10:07:59;;;;;;;6.87;4.80;;;;;;;;;;4999761;28;20422;-78
2023/07/15 10:10:25;;;;;;;8.37;5.43;;;;;;;;;;5013301;28;20909;-74
2023/07/15 10:12:51;;;;;;;6.07;5.13;;;20.00;99.90;;;;;;5012785;28;20824;-78
2023/07/15 10:15:17;;;;;;;5.27;4.77;;;20.00;99.90;;;;;;5018955;28;20421;-77
2023/07/15 10:17:45;;;;;;;6.17;4.80;;;20.00;99.90;;;;;;5015597;28;20418;-77
2023/07/15 10:20:14;;;;;;;10.50;6.30;;;20.10;99.90;;;;;;5014738;28;20442;-77
2023/07/15 10:22:41;;;;;;;6.20;5.30;;;20.20;99.90;;;;;;5014402;28;20402;-77
2023/07/15 10:25:09;;;;;;;6.07;4.67;;;20.20;99.90;;;;;;5014568;28;20456;-77
2023/07/15 10:27:35;;;;;;;4.63;4.10;;;20.40;99.90;;;;;;5013427;28;20430;-77
2023/07/15 10:30:15;;;;;;;6.27;5.20;;;;;;;;;;5012961;28;20428;-77
2023/07/15 10:33:05;;;;;;;5.30;4.77;;;20.30;99.90;;;;;;5012390;28;20822;-77
2023/07/15 10:35:32;;;;;;;5.40;4.50;;;;;;;;;;5014219;28;20422;-78
2023/07/15 10:38:16;;;;;;;6.00;4.00;;;;;;;;;;5012892;28;20407;-77
2023/07/15 10:40:49;;;;;;;7.03;4.40;;;;;;;;;;5014646;28;20406;-77
2023/07/15 10:43:19;;;;;;;6.03;3.97;;;;;;;;;;5014175;28;20785;-78
2023/07/15 10:45:55;;;;;;;7.70;4.57;;;;;;;;;;5014421;28;20495;-77
2023/07/15 10:48:22;;;;;;;6.90;3.90;;;;;;;;;;5013122;28;20421;-77
2023/07/15 10:50:55;;;;;;;4.40;4.00;;;;;;;;;;5013611;28;20439;-85
2023/07/15 10:53:22;;;;;;;4.90;3.70;;;;;;;;;;5012425;28;20493;-84
2023/07/15 10:55:55;;;;;;;5.50;3.97;;;;;;;;;;5011373;28;20425;-84
2023/07/15 10:58:21;;;;;;;6.17;4.70;;;;;;;;;;5012728;28;20497;-84
2023/07/15 11:00:47;;;;;;;3.80;3.47;;;;;;;;;;5017170;28;20409;-85
2023/07/15 11:03:13;;;;;;;3.80;3.50;;;;;;;;;;5016209;28;20421;-85
2023/07/15 11:05:42;;;;;;;6.17;4.00;;;21.20;99.90;;;;;;5015747;28;20429;-85
2023/07/15 11:08:08;;;;;;;7.07;3.23;;;21.10;99.90;;;;;;5017103;28;20405;-85
2023/07/15 11:10:34;;;;;;;4.70;3.80;;;21.10;99.90;;;;;;5017022;28;20436;-85
2023/07/15 11:13:17;;;;;;;5.30;4.23;;;21.20;99.90;;;;;;5015790;28;20977;-85
2023/07/15 11:15:46;;;;;;;3.70;3.10;;;21.30;99.90;;;;;;5014683;28;20590;-85
2023/07/15 11:18:25;;;;;;;4.13;3.50;;;21.40;99.90;;;;;;5014710;28;20978;-84
2023/07/15 11:20:53;;;;;;;4.50;3.37;;;21.50;99.90;;;;;;5015103;28;20437;-85
2023/07/15 11:23:19;;;;;;;5.20;3.13;;;21.50;99.90;;;;;;5015483;28;20422;-85
2023/07/15 11:25:46;;;;;;;3.20;2.90;;;21.60;99.90;;;;;;5016738;28;20414;-85
2023/07/15 11:28:12;;;;;;;3.73;3.17;;;21.70;99.90;;;;;;5015490;28;20448;-84
2023/07/15 11:30:45;;;;;;;4.53;3.53;;;21.90;99.90;;;;;;5015347;28;20422;-85
2023/07/15 11:33:11;;;;;;;9.00;3.70;;;;;;;;;;5015477;28;20508;-89
2023/07/15 11:35:38;;;;;;;3.73;3.10;;;;;;;;;;4999108;28;20786;-89
2023/07/15 11:38:10;;;;;;;3.57;3.10;;;;;;;;;;5017037;28;20417;-85
2023/07/15 11:40:36;;;;;;;3.60;2.77;;;;;;;;;;5034959;28;20419;-87
2023/07/15 11:43:05;;;;;;;2.90;2.70;;;;;;;;;;5036442;28;20759;-88
2023/07/15 11:45:32;;;;;;;6.30;2.57;;;;;;;;;;5035165;28;20508;-87
2023/07/15 11:47:58;;;;;;;6.37;3.10;;;;;;;;;;5025176;28;20410;-84
2023/07/15 11:50:26;;;;;;;4.33;2.77;;;;;;;;;;5015545;28;20406;-84
2023/07/15 11:52:52;;;;;;;3.03;2.63;;;;;;;;;;5015102;28;20476;-87
2023/07/15 11:55:27;;;;;;;3.00;2.47;;;;;;;;;;5015397;28;20476;-89
2023/07/15 11:57:54;;;;;;;3.60;2.50;;;;;;;;;;5014512;28;20475;-85
2023/07/15 12:00:26;;;;;;;5.63;2.87;;;;;;;;;;5016294;28;20513;-84
2023/07/15 12:02:53;;;;;;;3.00;2.80;;;;;;;;;;5016464;28;20410;-85
2023/07/15 12:05:19;;;;;;;3.20;2.60;;;;;;;;;;4998620;28;20433;-85
2023/07/15 12:07:52;;;;;;;3.13;2.83;;;;;;;;;;5016238;28;20402;-85
2023/07/15 12:10:19;;;;;;;4.73;2.97;;;;;;;;;;5014268;28;20467;-85
2023/07/15 12:12:46;;;;;;;5.50;2.80;;;;;;;;;;5014586;28;20470;-85
2023/07/15 12:15:15;;;;;;;3.23;2.70;;;;;;;;;;5015947;28;20544;-86
2023/07/15 12:17:41;;;;;;;4.17;3.07;;;;;;;;;;5015582;28;20406;-86
2023/07/15 12:20:08;;;;;;;3.70;3.07;;;;;;;;;;5014680;28;20414;-86
2023/07/15 12:22:34;;;;;;;2.70;2.50;;;;;;;;;;5014347;28;20611;-86
2023/07/15 12:25:00;;;;;;;4.67;3.03;;;;;;;;;;5018448;28;20421;-87
2023/07/15 12:27:26;;;;;;;4.30;3.20;;;;;;;;;;5036682;28;20455;-86
2023/07/15 12:29:52;;;;;;;3.60;3.30;;;;;;;;;;5034397;28;20429;-86
2023/07/15 12:32:18;;;;;;;3.43;2.80;;;;;;;;;;5034564;28;20494;-86
2023/07/15 12:34:44;;;;;;;3.43;2.93;;;;;;;;;;5037877;28;20454;-86
2023/07/15 12:37:10;;;;;;;7.60;2.93;;;;;;;;;;5019099;28;20413;-86
2023/07/15 12:39:36;;;;;;;3.20;2.90;;;;;;;;;;5019378;28;20417;-86
2023/07/15 12:42:03;;;;;;;4.00;3.30;;;;;;;;;;5018625;28;20409;-86
2023/07/15 12:44:28;;;;;;;3.43;2.93;;;;;;;;;;5038042;28;20469;-86
2023/07/15 12:46:54;;;;;;;3.60;2.60;;;;;;;;;;5038102;28;21044;-86
2023/07/15 12:49:20;;;;;;;3.23;3.00;;;;;;;;;;5037707;28;20409;-86
2023/07/15 12:51:46;;;;;;;5.00;3.47;;;;;;;;;;5034852;28;20486;-86
2023/07/15 12:54:12;;;;;;;3.80;3.00;;;;;;;;;;5033891;28;20471;-86
2023/07/15 12:56:38;;;;;;;5.43;3.03;;;;;;;;;;5033729;28;20433;-86
2023/07/15 12:59:04;;;;;;;4.33;3.10;;;;;;;;;;5033721;28;21137;-86
2023/07/15 13:01:30;;;;;;;3.33;3.00;;;;;;;;;;5033757;28;20488;-86
2023/07/15 13:03:56;;;;;;;3.57;3.00;;;;;;;;;;5033525;28;20428;-87
2023/07/15 13:06:24;;;;;;;3.17;2.87;;;;;;;;;;5033547;28;20479;-86
2023/07/15 13:08:50;;;;;;;3.17;2.80;;;;;;;;;;5033488;28;20451;-86
2023/07/15 13:11:16;;;;;;;2.80;2.60;;;;;;;;;;5034137;28;20905;-86
2023/07/15 13:13:42;;;;;;;3.20;2.60;;;;;;;;;;5034466;28;20883;-90
2023/07/15 13:16:12;;;;;;;2.80;2.60;;;;;;;;;;5036324;28;20450;-95
2023/07/15 13:18:38;;;;;;;3.60;2.70;;;;;;;;;;5034311;28;20507;-87
2023/07/15 13:21:04;;;;;;;3.17;2.73;;;;;;;;;;5016827;28;20448;-87
2023/07/15 13:23:30;;;;;;;5.50;3.20;;;;;;;;;;5032511;28;20425;-86
2023/07/15 13:25:56;;;;;;;3.30;3.00;;;;;;;;;;5034254;28;20420;-87
2023/07/15 13:28:23;;;;;;;2.80;2.43;;;;;;;;;;5033151;28;20437;-88
2023/07/15 13:30:49;;;;;;;3.00;2.70;;;;;;;;;;5033161;28;20412;-87
2023/07/15 13:33:15;;;;;;;5.30;2.83;;;;;;;;;;5016511;28;20979;-85
2023/07/15 13:35:41;;;;;;;3.63;2.47;;;;;;;;;;5016593;28;20424;-85
2023/07/15 13:38:07;;;;;;;3.00;2.40;;;;;;;;;;5032934;28;20405;-87
2023/07/15 13:40:33;;;;;;;3.80;3.10;;;;;;;;;;5016781;28;20417;-86
2023/07/15 13:42:59;;;;;;;2.97;2.77;;;;;;;;;;5032575;28;20413;-87
2023/07/15 13:45:25;;;;;;;3.57;2.90;;;;;;;;;;5016528;28;20417;-86
2023/07/15 13:47:52;;;;;;;2.50;2.30;;;;;;;;;;5016280;28;20432;-86
2023/07/15 13:50:18;;;;;;;4.03;3.13;;;;;;;;;;5032689;28;20500;-85
2023/07/15 13:52:44;;;;;;;4.10;2.83;;;;;;;;;;5032640;28;20559;-86
2023/07/15 13:55:10;;;;;;;2.80;2.60;;;;;;;;;;5016274;28;20405;-85
2023/07/15 13:57:36;;;;;;;3.23;2.93;;;;;;;;;;5032146;28;20476;-86
2023/07/15 14:00:02;;;;;;;2.57;2.37;;;;;;;;;;5032146;28;20402;-87
2023/07/15 14:02:28;;;;;;;3.73;2.80;;;;;;;;;;5034259;28;20401;-88
2023/07/15 14:04:54;;;;;;;3.73;2.87;;;;;;;;;;5016125;28;20464;-87
2023/07/15 14:07:20;;;;;;;3.17;2.10;;;;;;;;;;5032488;28;20882;-84
2023/07/15 14:09:46;;;;;;;2.50;1.90;;;;;;;;;;5032122;28;20779;-86
2023/07/15 14:12:12;;;;;;;2.60;2.37;;;;;;;;;;5016300;28;20465;-86
2023/07/15 14:14:37;;;;;;;2.80;1.60;;;;;;;;;;5032334;28;20868;-87
2023/07/15 14:17:04;;;;;;;2.07;1.97;;;;;;;;;;5032150;28;20409;-87
2023/07/15 14:19:30;;;;;;;2.43;1.87;;;;;;;;;;5016259;28;20504;-86
2023/07/15 14:21:56;;;;;;;1.70;1.47;;;;;;;;;;5031684;28;20905;-87
2023/07/15 14:24:22;;;;;;;2.57;1.67;;;;;;;;;;5032135;28;20420;-86
2023/07/15 14:26:48;;;;;;;2.03;1.20;;;;;;;;;;5033127;28;20417;-85
2023/07/15 14:29:14;;;;;;;1.87;1.70;;;;;;;;;;5033947;28;20419;-91